Time;durP1;ratioP1;P1;durP2;ratioP2;P2;SDS_P1;SDS_P2;PMS_P1;PMS_P2;Temp;Humidity;BMP_temperature;BMP_pressure;BME280_temperature;BME280_humidity;BME280_pressure;Samples;Min_cycle;Max_cycle;Signal;HPM_P1;HPM_P2
2022/08/24 00:00:33;;;;;;;5.95;2.80;;;;;;;19.38;44.15;100008.63;10344287;28;20482;-60
2022/08/24 00:05:35;;;;;;;6.05;3.22;;;;;;;19.22;44.51;100013.69;10342701;28;20123;-60
2022/08/24 00:10:37;;;;;;;6.40;3.17;;;;;;;19.44;44.23;100014.19;10343811;28;20558;-60
2022/08/24 00:15:40;;;;;;;5.57;3.00;;;;;;;19.50;44.30;100012.78;10341061;28;20302;-60
2022/08/24 00:20:41;;;;;;;7.63;3.00;;;;;;;19.49;44.59;100021.72;10341963;28;20131;-60
2022/08/24 00:25:45;;;;;;;5.47;2.85;;;;;;;19.47;44.65;100018.38;10342563;28;20049;-60
2022/08/24 00:30:47;;;;;;;9.00;3.10;;;;;;;19.21;44.55;100017.34;10344071;28;20056;-60
2022/08/24 00:35:49;;;;;;;11.90;3.15;;;;;;;19.21;44.34;100017.34;10342432;28;20066;-60
2022/08/24 00:40:50;;;;;;;5.35;2.85;;;;;;;19.21;44.59;100022.66;10342338;28;20410;-60
2022/08/24 00:45:58;;;;;;;5.25;3.03;;;;;;;19.19;44.80;100022.81;10341259;28;20068;-60
2022/08/24 00:51:05;;;;;;;5.65;2.90;;;;;;;18.67;45.31;100017.16;10349653;28;20056;-60
2022/08/24 00:56:13;;;;;;;7.15;3.17;;;;;;;18.49;46.10;100020.50;10349155;28;20436;-60
2022/08/24 01:01:16;;;;;;;5.28;2.72;;;;;;;18.65;45.88;100027.88;10350784;28;20060;-60
2022/08/24 01:06:19;;;;;;;5.78;2.88;;;;;;;18.71;45.66;100023.84;10349038;28;20042;-60
2022/08/24 01:11:23;;;;;;;9.48;3.38;;;;;;;18.63;46.06;100025.38;10348958;28;20048;-60
2022/08/24 01:21:51;;;;;;;;;;;;;;;18.09;47.04;100035.63;10349297;28;20360;-60
2022/08/24 01:26:53;;;;;;;7.45;3.45;;;;;;;18.40;46.67;100045.16;10350184;28;19932;-60
2022/08/24 01:31:55;;;;;;;7.75;3.58;;;;;;;18.17;47.21;100045.53;10348034;28;20050;-60
2022/08/24 01:36:59;;;;;;;6.50;3.40;;;;;;;18.18;47.25;100047.22;10347651;28;20579;-60
2022/08/24 01:42:01;;;;;;;7.47;3.22;;;;;;;18.27;47.23;100039.31;10347220;28;20645;-60
2022/08/24 01:47:05;;;;;;;7.40;3.22;;;;;;;18.14;47.45;100046.63;10348607;28;20305;-60
2022/08/24 01:52:11;;;;;;;5.25;3.30;;;;;;;17.92;47.96;100048.66;10347845;28;20050;-60
2022/08/24 01:57:13;;;;;;;6.10;3.00;;;;;;;18.01;47.89;100045.22;10348700;28;20057;-60
2022/08/24 02:02:26;;;;;;;7.25;3.30;;;;;;;18.06;47.96;100051.78;10349101;28;20069;-60
2022/08/24 02:07:31;;;;;;;5.43;3.50;;;;;;;18.03;48.02;100052.06;10354864;28;20054;-60
2022/08/24 02:12:35;;;;;;;5.80;3.28;;;;;;;17.85;48.03;100046.56;10354392;28;20501;-60
2022/08/24 02:17:37;;;;;;;6.25;3.58;;;;;;;17.74;48.37;100051.13;10352560;28;20054;-60
2022/08/24 02:22:39;;;;;;;9.40;3.50;;;;;;;17.73;48.61;100055.56;10352802;28;20430;-60
2022/08/24 02:27:41;;;;;;;6.47;3.50;;;;;;;17.74;48.62;100064.34;10353043;28;20071;-60
2022/08/24 02:32:44;;;;;;;5.93;3.40;;;;;;;17.63;48.99;100062.63;10352531;28;20395;-60
2022/08/24 02:37:45;;;;;;;7.55;3.42;;;;;;;17.52;49.09;100065.38;10349362;28;20409;-60
2022/08/24 02:42:47;;;;;;;5.25;3.50;;;;;;;17.52;49.21;100064.53;10352138;28;20564;-60
2022/08/24 02:47:52;;;;;;;7.55;3.40;;;;;;;17.48;49.28;100071.06;10350757;28;20129;-60
2022/08/24 02:52:54;;;;;;;5.97;3.30;;;;;;;17.43;49.32;100063.53;10352977;28;20067;-60
2022/08/24 02:57:57;;;;;;;6.93;3.55;;;;;;;17.44;49.21;100074.94;10352764;28;20572;-60
2022/08/24 03:02:59;;;;;;;9.07;3.72;;;;;;;17.34;49.40;100072.25;10349022;28;20072;-60
2022/08/24 03:08:00;;;;;;;7.70;3.55;;;;;;;16.95;49.86;100080.88;10345433;28;20151;-60
2022/08/24 03:13:04;;;;;;;6.45;3.38;;;;;;;16.86;50.61;100081.63;10343932;28;20391;-60
2022/08/24 03:18:06;;;;;;;8.70;3.92;;;;;;;16.98;50.52;100075.31;10343834;28;20046;-59
2022/08/24 03:23:07;;;;;;;6.15;3.72;;;;;;;16.91;50.69;100082.09;10342882;28;20046;-60
2022/08/24 03:28:10;;;;;;;7.20;3.50;;;;;;;16.87;50.83;100073.56;10343864;28;20060;-60
2022/08/24 03:33:13;;;;;;;7.43;3.80;;;;;;;16.84;50.99;100078.28;10345141;28;20069;-60
2022/08/24 03:38:15;;;;;;;5.53;3.65;;;;;;;16.84;50.92;100067.72;10341849;28;20416;-59
2022/08/24 03:48:39;;;;;;;;;;;;;;;16.33;51.91;100074.59;10343716;28;20069;-59
2022/08/24 03:53:41;;;;;;;9.23;3.55;;;;;;;16.50;51.72;100074.94;10343927;28;19925;-59
2022/08/24 03:58:44;;;;;;;9.10;4.20;;;;;;;16.56;51.83;100079.72;10342151;28;20061;-59
2022/08/24 04:03:47;;;;;;;6.57;3.45;;;;;;;16.62;51.73;100081.00;10344032;28;20050;-59
2022/08/24 04:08:50;;;;;;;10.05;3.55;;;;;;;16.66;51.41;100074.53;10342541;28;20133;-59
2022/08/24 04:13:55;;;;;;;6.90;4.15;;;;;;;16.58;51.73;100074.31;10342242;28;20044;-59
2022/08/24 04:18:57;;;;;;;5.90;3.80;;;;;;;16.46;52.08;100073.53;10340561;28;20096;-59
2022/08/24 04:24:00;;;;;;;6.57;3.40;;;;;;;16.51;51.95;100081.06;10341791;28;20399;-59
2022/08/24 04:29:02;;;;;;;8.00;4.00;;;;;;;16.58;51.57;100076.94;10342848;28;20395;-59
2022/08/24 04:34:10;;;;;;;6.32;3.90;;;;;;;16.59;51.79;100078.66;10341105;28;20049;-59
2022/08/24 04:39:13;;;;;;;7.15;3.90;;;;;;;16.56;51.68;100089.44;10340978;28;20076;-59
2022/08/24 04:44:15;;;;;;;6.00;3.67;;;;;;;16.55;51.80;100083.31;10342490;28;20046;-59
2022/08/24 04:49:17;;;;;;;6.10;3.83;;;;;;;16.70;51.42;100083.88;10341054;28;20056;-58
2022/08/24 04:54:18;;;;;;;6.35;3.55;;;;;;;16.90;51.44;100096.25;10341791;28;20072;-59
2022/08/24 04:59:20;;;;;;;7.85;3.80;;;;;;;16.97;51.25;100092.16;10343148;28;20401;-59
2022/08/24 05:04:23;;;;;;;6.57;3.70;;;;;;;17.03;50.77;100100.41;10342536;28;20160;-59
2022/08/24 05:09:24;;;;;;;6.53;3.78;;;;;;;17.28;50.66;100108.91;10341975;28;20148;-59
2022/08/24 05:14:27;;;;;;;7.18;3.97;;;;;;;17.38;50.04;100113.34;10340882;28;20049;-59
2022/08/24 05:19:29;;;;;;;4.95;3.38;;;;;;;17.55;49.58;100112.72;10340121;28;20053;-59
2022/08/24 05:24:31;;;;;;;9.45;3.70;;;;;;;17.83;49.11;100122.59;10340106;28;20626;-59
2022/08/24 05:29:33;;;;;;;7.25;3.55;;;;;;;17.93;48.95;100112.06;10340822;28;20058;-59
2022/08/24 05:34:35;;;;;;;9.63;3.58;;;;;;;17.90;49.35;100119.41;10341771;28;20095;-59
2022/08/24 05:39:37;;;;;;;6.80;3.72;;;;;;;17.76;49.29;100117.97;10346640;28;20042;-59
2022/08/24 05:44:39;;;;;;;5.63;3.55;;;;;;;17.90;48.86;100119.41;10344938;28;20068;-59
2022/08/24 05:49:42;;;;;;;8.82;3.78;;;;;;;18.01;48.86;100116.66;10348124;28;20041;-59
2022/08/24 05:54:44;;;;;;;8.52;3.65;;;;;;;18.16;48.33;100125.91;10349101;28;20062;-59
2022/08/24 05:59:46;;;;;;;7.15;4.00;;;;;;;18.28;48.38;100122.22;10348230;28;20136;-58
2022/08/24 06:04:48;;;;;;;6.18;3.40;;;;;;;18.45;47.87;100124.19;10346098;28;20501;-58
2022/08/24 06:09:52;;;;;;;6.40;3.60;;;;;;;18.55;47.58;100120.59;10348578;28;20525;-59
2022/08/24 06:14:54;;;;;;;7.72;3.70;;;;;;;18.70;47.27;100128.97;10346820;28;20437;-59
2022/08/24 06:19:56;;;;;;;6.65;3.45;;;;;;;18.86;46.93;100128.41;10346048;28;20084;-59
2022/08/24 06:30:18;;;;;;;5.93;3.40;;;;;;;19.27;46.27;100122.84;10347076;28;20516;-59
2022/08/24 06:35:20;;;;;;;6.72;3.30;;;;;;;19.46;45.93;100130.75;10345042;28;20085;-59
2022/08/24 06:40:24;;;;;;;14.68;4.07;;;;;;;19.58;45.94;100137.59;10343889;28;20056;-59
2022/08/24 06:45:26;;;;;;;17.60;3.67;;;;;;;19.69;45.38;100140.03;10344265;28;20628;-59
2022/08/24 06:50:28;;;;;;;23.38;4.30;;;;;;;19.74;45.69;100135.16;10346375;28;20061;-59
2022/08/24 06:55:29;;;;;;;29.45;4.15;;;;;;;19.81;45.49;100133.59;10342535;28;20304;-59
2022/08/24 07:00:31;;;;;;;11.23;4.10;;;;;;;19.94;45.29;100143.91;10345210;28;20046;-59
2022/08/24 07:05:33;;;;;;;29.73;4.40;;;;;;;20.09;45.51;100142.44;10341266;28;20513;-59
2022/08/24 07:10:36;;;;;;;24.70;3.78;;;;;;;20.06;45.54;100150.69;10340673;28;20056;-59
2022/08/24 07:15:38;;;;;;;7.13;3.53;;;;;;;20.15;44.52;100147.16;10345374;28;20067;-59
2022/08/24 07:20:41;;;;;;;11.35;4.32;;;;;;;20.15;44.40;100152.47;10345510;28;20414;-59
2022/08/24 07:25:45;;;;;;;11.27;3.90;;;;;;;20.17;44.36;100156.63;10345592;28;20136;-59
2022/08/24 07:30:50;;;;;;;6.78;3.75;;;;;;;20.37;44.08;100159.22;10344974;28;20049;-59
2022/08/24 07:35:52;;;;;;;10.10;4.00;;;;;;;20.50;43.71;100167.69;10338834;28;20125;-59
2022/08/24 07:40:59;;;;;;;9.77;4.22;;;;;;;21.11;43.00;100159.84;10341754;28;20045;-59
2022/08/24 07:46:21;;;;;;;6.78;3.33;;;;;;;21.98;41.19;100158.81;10342996;28;20053;-59
2022/08/24 07:51:23;;;;;;;8.25;3.40;;;;;;;23.02;39.46;100145.00;10344639;28;20557;-60
2022/08/24 07:56:27;;;;;;;8.82;3.30;;;;;;;23.75;37.97;100160.97;10344432;28;20084;-59
2022/08/24 08:01:28;;;;;;;12.73;3.30;;;;;;;24.56;36.83;100149.00;10340227;28;20151;-59
2022/08/24 08:06:30;;;;;;;7.68;2.85;;;;;;;25.24;35.49;100157.09;10344461;28;20050;-60
2022/08/24 08:11:32;;;;;;;8.77;3.22;;;;;;;25.85;34.26;100156.81;10336946;28;20496;-60
2022/08/24 08:16:34;;;;;;;9.38;2.60;;;;;;;25.73;34.34;100155.63;10343446;28;20485;-60
2022/08/24 08:27:01;;;;;;;12.45;3.13;;;;;;;26.05;33.67;100153.63;10339685;28;20062;-60
2022/08/24 08:32:03;;;;;;;49.08;4.40;;;;;;;26.09;33.23;100157.59;10336496;28;20100;-59
2022/08/24 08:37:05;;;;;;;32.60;2.90;;;;;;;26.30;33.10;100155.00;10331365;28;20050;-60
2022/08/24 08:42:13;;;;;;;8.55;2.30;;;;;;;26.56;32.38;100147.31;10335796;28;20038;-60
2022/08/24 08:47:43;;;;;;;17.53;2.57;;;;;;;26.91;31.57;100146.44;10343125;28;20418;-60
2022/08/24 08:52:45;;;;;;;;;;;;;;;27.20;31.34;100135.59;10331192;28;20096;-60
2022/08/24 08:58:10;;;;;;;9.90;2.40;;;;;;;27.71;29.97;100135.38;10342021;28;20448;-60
2022/08/24 09:03:28;;;;;;;24.52;2.95;;;;;;;28.11;29.80;100140.78;10337135;28;20054;-60
2022/08/24 09:08:39;;;;;;;18.13;2.88;;;;;;;28.09;30.08;100128.56;10334343;28;20061;-60
2022/08/24 09:14:10;;;;;;;38.72;3.55;;;;;;;28.13;29.80;100130.66;10347000;28;20485;-60
2022/08/24 09:19:33;;;;;;;22.10;2.72;;;;;;;28.25;29.51;100128.22;10345672;28;20132;-60
2022/08/24 09:24:53;;;;;;;13.75;2.60;;;;;;;28.63;29.21;100124.03;10339953;28;20054;-60
2022/08/24 09:30:00;;;;;;;11.02;2.30;;;;;;;28.75;29.22;100111.63;10345839;28;20046;-60
2022/08/24 09:35:07;;;;;;;27.73;3.38;;;;;;;28.82;29.61;100117.88;10349141;28;20077;-60
2022/08/24 09:40:27;;;;;;;5.72;2.50;;;;;;;29.22;28.40;100107.97;10339764;28;20046;-60
2022/08/24 09:45:50;;;;;;;52.50;3.65;;;;;;;29.45;28.46;100102.19;10340419;28;20042;-60
2022/08/24 09:51:08;;;;;;;9.10;2.30;;;;;;;29.33;28.41;100111.91;10344698;28;20050;-60
2022/08/24 09:56:17;;;;;;;7.10;2.20;;;;;;;29.56;27.75;100104.25;10347100;28;20064;-60
2022/08/24 10:01:24;;;;;;;8.25;2.10;;;;;;;29.72;27.36;100106.50;10346437;28;20280;-58
2022/08/24 10:06:47;;;;;;;47.17;3.80;;;;;;;29.98;26.78;100092.97;10345468;28;20673;-58
2022/08/24 10:12:10;;;;;;;7.47;2.33;;;;;;;30.20;26.43;100086.22;10330285;28;20151;-57
2022/08/24 10:17:30;;;;;;;6.15;2.30;;;;;;;29.74;26.69;100080.97;10344900;28;20060;-58
2022/08/24 10:22:46;;;;;;;6.85;2.10;;;;;;;30.22;26.50;100081.44;10342200;28;20541;-58
2022/08/24 10:28:25;;;;;;;7.72;1.90;;;;;;;30.07;25.79;100075.47;10344524;28;20121;-57
2022/08/24 10:33:43;;;;;;;57.37;4.10;;;;;;;30.10;25.82;100069.66;10343202;28;20409;-58
2022/08/24 10:44:41;;;;;;;62.63;3.97;;;;;;;30.25;25.67;100056.75;10346305;28;20045;-58
2022/08/24 10:50:05;;;;;;;11.02;1.90;;;;;;;30.61;24.99;100053.44;10341212;28;20455;-58
2022/08/24 10:55:28;;;;;;;5.32;2.15;;;;;;;30.17;24.89;100059.66;10341056;28;20172;-58
2022/08/24 11:00:30;;;;;;;29.38;2.80;;;;;;;30.22;25.41;100057.16;10344008;28;20045;-58
2022/08/24 11:05:45;;;;;;;7.03;2.55;;;;;;;30.49;23.91;100053.31;10345303;28;20495;-58
2022/08/24 11:11:10;;;;;;;12.20;2.63;;;;;;;30.33;24.14;100048.41;10347093;28;20049;-58
2022/08/24 11:16:24;;;;;;;8.25;2.15;;;;;;;30.34;24.00;100047.34;10345311;28;20647;-58
2022/08/24 11:21:36;;;;;;;5.57;2.00;;;;;;;30.52;23.57;100038.53;10344588;28;20049;-58
2022/08/24 11:26:50;;;;;;;7.55;2.15;;;;;;;30.68;23.02;100040.72;10344989;28;20088;-58
2022/08/24 11:31:55;;;;;;;8.93;2.50;;;;;;;30.59;23.42;100023.97;10345585;28;20414;-58
2022/08/24 11:36:57;;;;;;;10.82;2.55;;;;;;;30.73;22.96;100015.75;10344454;28;20053;-58
2022/08/24 11:42:11;;;;;;;6.22;2.05;;;;;;;30.84;22.78;100017.75;10344500;28;20089;-58
2022/08/24 11:47:19;;;;;;;6.47;2.22;;;;;;;31.15;22.15;100005.00;10345440;28;20137;-58
2022/08/24 11:52:31;;;;;;;6.37;2.20;;;;;;;31.11;21.26;100020.00;10343039;28;20072;-58
2022/08/24 11:57:45;;;;;;;6.47;2.22;;;;;;;31.29;20.73;100000.31;10343444;28;20438;-58
2022/08/24 12:02:53;;;;;;;8.63;2.13;;;;;;;31.41;20.82;99998.50;10344675;28;20042;-58
2022/08/24 12:08:20;;;;;;;8.85;2.42;;;;;;;31.44;20.79;99992.63;10344132;28;20037;-57
2022/08/24 12:13:49;;;;;;;7.43;2.92;;;;;;;31.66;20.26;99996.56;10341871;28;20060;-58
2022/08/24 12:19:02;;;;;;;6.45;2.20;;;;;;;31.58;20.10;99990.66;10343344;28;20068;-58
2022/08/24 12:24:10;;;;;;;6.40;2.30;;;;;;;31.51;20.31;99989.91;10343124;28;20384;-58
2022/08/24 12:29:27;;;;;;;6.30;2.15;;;;;;;31.78;20.13;99973.09;10342712;28;20056;-58
2022/08/24 12:35:04;;;;;;;5.18;2.40;;;;;;;31.80;20.46;99976.41;10342807;28;20052;-58
2022/08/24 12:40:40;;;;;;;9.75;2.30;;;;;;;32.19;19.80;99973.19;10336540;28;20046;-58
2022/08/24 12:45:42;;;;;;;9.18;2.20;;;;;;;32.20;20.67;99968.63;10348062;28;20516;-58
2022/08/24 12:50:52;;;;;;;6.30;2.17;;;;;;;32.04;20.03;99980.91;10350731;28;20056;-58
2022/08/24 12:56:13;;;;;;;5.75;2.20;;;;;;;32.12;20.52;99958.94;10351219;28;20058;-58
2022/08/24 13:01:17;;;;;;;5.35;2.17;;;;;;;32.58;19.89;99968.25;10350537;28;20045;-58
2022/08/24 13:06:37;;;;;;;4.97;2.20;;;;;;;32.61;19.96;99963.22;10351320;28;20053;-58
2022/08/24 13:11:39;;;;;;;7.32;2.30;;;;;;;32.36;20.11;99961.69;10349367;28;20404;-58
2022/08/24 13:16:49;;;;;;;4.20;2.10;;;;;;;32.37;20.30;99961.50;10345220;28;20049;-58
2022/08/24 13:21:54;;;;;;;4.57;2.00;;;;;;;32.51;20.26;99956.72;10341819;28;20050;-59
2022/08/24 13:27:11;;;;;;;6.47;2.10;;;;;;;32.76;20.08;99943.75;10337907;28;20521;-58
2022/08/24 13:32:24;;;;;;;8.88;2.05;;;;;;;32.82;20.20;99943.66;10343307;28;20058;-58
2022/08/24 13:37:31;;;;;;;6.03;1.80;;;;;;;33.07;19.67;99938.03;10343447;28;20050;-58
2022/08/24 13:43:06;;;;;;;5.75;1.90;;;;;;;33.09;19.99;99935.91;10347567;28;20046;-58
2022/08/24 13:48:46;;;;;;;8.18;2.00;;;;;;;32.85;20.05;99929.66;10348860;28;20048;-58
2022/08/24 13:54:12;;;;;;;9.43;2.22;;;;;;;32.88;19.25;99928.34;10347733;28;20053;-58
2022/08/24 14:00:00;;;;;;;10.00;2.33;;;;;;;32.84;19.14;99929.91;10347527;28;20391;-58
2022/08/24 14:05:10;;;;;;;6.47;2.25;;;;;;;33.10;18.96;99926.72;10350311;28;20502;-58
2022/08/24 14:10:22;;;;;;;8.40;2.00;;;;;;;32.95;18.97;99920.91;10346005;28;20157;-58
2022/08/24 14:15:42;;;;;;;9.07;2.20;;;;;;;32.96;19.23;99922.59;10346379;28;20054;-58
2022/08/24 14:20:56;;;;;;;23.75;2.55;;;;;;;32.82;18.65;99926.59;10346917;28;20057;-58
2022/08/24 14:26:31;;;;;;;11.60;1.90;;;;;;;32.69;18.83;99918.69;10347250;28;20050;-58
2022/08/24 14:31:33;;;;;;;5.05;2.20;;;;;;;32.75;19.29;99920.47;10346689;28;20049;-58
2022/08/24 14:36:52;;;;;;;5.40;1.95;;;;;;;32.89;18.64;99919.16;10345385;28;20056;-58
2022/08/24 14:42:19;;;;;;;3.58;1.70;;;;;;;32.70;18.35;99917.63;10346538;28;20054;-58
2022/08/24 14:47:51;;;;;;;9.13;2.05;;;;;;;32.86;18.28;99911.53;10345815;28;20056;-58
2022/08/24 14:53:08;;;;;;;7.35;2.00;;;;;;;32.83;18.00;99911.97;10346454;28;20390;-58
2022/08/24 14:58:26;;;;;;;4.60;1.70;;;;;;;32.60;18.47;99903.84;10345672;28;20084;-58
2022/08/24 15:03:53;;;;;;;5.38;1.67;;;;;;;32.63;17.91;99911.50;10342122;28;20395;-58
2022/08/24 15:09:34;;;;;;;3.65;1.70;;;;;;;32.58;18.26;99906.78;10340924;28;20104;-58
2022/08/24 15:14:45;;;;;;;4.57;1.60;;;;;;;32.60;18.36;99903.84;10347396;28;20414;-58
2022/08/24 15:20:17;;;;;;;5.07;2.13;;;;;;;32.64;17.83;99892.31;10345386;28;20470;-58
2022/08/24 15:25:22;;;;;;;4.45;1.92;;;;;;;32.78;17.73;99895.63;10344955;28;20057;-58
2022/08/24 15:30:31;;;;;;;3.85;1.70;;;;;;;32.77;17.96;99888.53;10344835;28;20086;-58
2022/08/24 15:35:40;;;;;;;5.15;1.80;;;;;;;32.66;18.50;99882.06;10344149;28;20046;-58
2022/08/24 15:40:42;;;;;;;5.32;1.73;;;;;;;32.64;18.45;99875.22;10344978;28;20493;-58
2022/08/24 15:45:50;;;;;;;4.88;1.80;;;;;;;32.80;18.38;99879.97;10343731;28;20670;-58
2022/08/24 15:50:54;;;;;;;4.93;1.70;;;;;;;32.80;18.05;99880.75;10342794;28;20054;-58
2022/08/24 15:55:57;;;;;;;2.63;1.50;;;;;;;32.61;18.06;99878.44;10343038;28;20053;-58
2022/08/24 16:06:31;;;;;;;4.85;1.60;;;;;;;32.19;18.56;99888.47;10343865;28;20057;-58
2022/08/24 16:11:37;;;;;;;6.70;1.50;;;;;;;32.14;18.41;99886.47;10342755;28;20046;-58
2022/08/24 16:16:43;;;;;;;3.03;1.48;;;;;;;32.37;18.48;99874.03;10343944;28;20060;-58
2022/08/24 16:22:05;;;;;;;3.80;1.67;;;;;;;32.43;18.50;99873.09;10341569;28;20049;-58
2022/08/24 16:27:07;;;;;;;6.50;1.70;;;;;;;32.36;18.17;99880.50;10339866;28;20060;-58
2022/08/24 16:32:12;;;;;;;4.22;1.65;;;;;;;32.34;18.64;99879.91;10340972;28;20133;-58
2022/08/24 16:37:31;;;;;;;5.75;1.70;;;;;;;32.16;19.04;99868.13;10343890;28;20057;-58
2022/08/24 16:42:33;;;;;;;7.82;1.83;;;;;;;32.16;18.89;99872.72;10342659;28;20054;-58
2022/08/24 16:47:36;;;;;;;4.82;1.90;;;;;;;32.00;18.79;99873.38;10342938;28;20080;-58
2022/08/24 16:52:37;;;;;;;6.00;1.58;;;;;;;32.02;19.24;99871.28;10334206;28;20050;-58
2022/08/24 16:57:39;;;;;;;6.85;2.17;;;;;;;32.13;19.17;99870.44;10332885;28;20069;-58
2022/08/24 17:02:41;;;;;;;4.80;1.60;;;;;;;31.98;19.39;99872.75;10338234;28;20045;-58
2022/08/24 17:07:43;;;;;;;4.70;1.90;;;;;;;32.05;19.33;99877.03;10337183;28;20124;-58
2022/08/24 17:12:45;;;;;;;5.53;1.75;;;;;;;31.95;19.79;99876.75;10339588;28;20045;-58
2022/08/24 17:18:02;;;;;;;8.05;1.83;;;;;;;31.77;19.46;99882.22;10341869;28;20058;-58
2022/08/24 17:23:04;;;;;;;9.27;1.85;;;;;;;31.70;20.61;99878.78;10354573;28;20056;-58
2022/08/24 17:28:08;;;;;;;5.68;1.80;;;;;;;31.69;20.53;99881.72;10342644;28;20402;-58
2022/08/24 17:33:10;;;;;;;5.18;1.90;;;;;;;31.49;20.90;99884.69;10349054;28;20064;-58
2022/08/24 17:38:12;;;;;;;5.20;1.80;;;;;;;31.35;21.06;99889.41;10348173;28;20056;-58
2022/08/24 17:43:14;;;;;;;5.75;2.22;;;;;;;31.22;21.02;99900.38;10349631;28;20415;-58
2022/08/24 17:48:22;;;;;;;6.22;1.83;;;;;;;31.08;21.82;99907.00;10349578;28;20053;-58
2022/08/24 17:53:24;;;;;;;5.72;2.00;;;;;;;30.91;21.82;99905.06;10349277;28;20049;-58
2022/08/24 17:58:26;;;;;;;5.60;1.80;;;;;;;30.75;21.85;99908.34;10348736;28;20421;-58
2022/08/24 18:03:29;;;;;;;7.25;2.00;;;;;;;30.55;22.19;99906.66;10349644;28;20058;-58
2022/08/24 18:08:30;;;;;;;6.18;2.10;;;;;;;30.35;22.36;99916.78;10348633;28;20050;-58
2022/08/24 18:13:32;;;;;;;7.35;2.00;;;;;;;30.07;23.07;99924.44;10349015;28;20501;-58
2022/08/24 18:18:34;;;;;;;6.63;2.03;;;;;;;29.83;23.21;99927.88;10348014;28;21163;-58
2022/08/24 18:23:36;;;;;;;9.40;2.08;;;;;;;29.53;23.72;99933.00;10348233;28;20056;-60
2022/08/24 18:28:44;;;;;;;8.90;2.05;;;;;;;29.30;24.15;99942.56;10348155;28;20061;-58
2022/08/24 18:33:45;;;;;;;7.22;1.88;;;;;;;29.06;24.08;99944.94;10347447;28;20050;-58
2022/08/24 18:38:47;;;;;;;5.53;1.80;;;;;;;28.89;24.21;99946.41;10348792;28;20052;-57
2022/08/24 18:43:49;;;;;;;4.40;1.90;;;;;;;28.68;24.51;99957.38;10348026;28;20049;-57
2022/08/24 18:48:50;;;;;;;10.90;1.98;;;;;;;28.50;25.04;99957.19;10346747;28;20054;-58
2022/08/24 18:54:00;;;;;;;25.65;2.88;;;;;;;28.27;25.43;99964.78;10346388;28;20532;-57
2022/08/24 18:59:03;;;;;;;7.35;2.05;;;;;;;28.05;25.98;99952.53;10346430;28;20136;-60
2022/08/24 19:04:05;;;;;;;5.90;2.25;;;;;;;27.74;26.42;99961.13;10342504;28;20042;-60
2022/08/24 19:09:14;;;;;;;9.20;2.03;;;;;;;27.56;26.62;99966.19;10345640;28;20092;-60
2022/08/24 19:14:16;;;;;;;11.88;2.40;;;;;;;27.41;26.96;99960.97;10346900;28;20092;-60
2022/08/24 19:19:19;;;;;;;5.63;2.10;;;;;;;27.28;27.19;99971.63;10347122;28;20188;-60
2022/08/24 19:24:25;;;;;;;8.63;2.10;;;;;;;27.18;27.80;99976.53;10346520;28;20140;-60
2022/08/24 19:29:26;;;;;;;6.05;2.00;;;;;;;26.79;27.77;99976.22;10346287;28;20489;-60
2022/08/24 19:34:50;;;;;;;10.43;2.17;;;;;;;26.32;28.17;99984.84;10345331;28;20525;-60
2022/08/24 19:39:52;;;;;;;7.32;2.20;;;;;;;26.02;28.77;99979.81;10345840;28;20075;-60
2022/08/24 19:50:16;;;;;;;8.45;2.20;;;;;;;25.82;29.08;99983.03;10342770;28;20399;-60
2022/08/24 19:55:21;;;;;;;8.25;2.20;;;;;;;25.81;29.20;99992.09;10343281;28;20072;-60
2022/08/24 20:00:33;;;;;;;5.07;1.92;;;;;;;25.71;29.47;99986.19;10343589;28;20050;-61
2022/08/24 20:05:35;;;;;;;10.18;2.28;;;;;;;25.60;29.81;99993.88;10343180;28;20430;-61
2022/08/24 20:10:37;;;;;;;6.72;2.17;;;;;;;25.38;30.33;100003.69;10345238;28;20382;-61
2022/08/24 20:15:39;;;;;;;6.55;2.30;;;;;;;25.34;30.65;100007.75;10339708;28;20058;-60
2022/08/24 20:20:42;;;;;;;6.65;2.33;;;;;;;25.20;30.94;100011.22;10340956;28;20611;-60
2022/08/24 20:25:44;;;;;;;8.45;2.40;;;;;;;25.17;31.16;100013.41;10343142;28;20120;-60
2022/08/24 20:30:46;;;;;;;6.15;2.08;;;;;;;24.97;31.40;100011.28;10342893;28;20264;-60
2022/08/24 20:35:49;;;;;;;3.80;2.00;;;;;;;24.80;31.54;100014.28;10344558;28;20050;-60
2022/08/24 20:40:51;;;;;;;5.15;2.10;;;;;;;24.78;31.95;100018.97;10344560;28;20049;-60
2022/08/24 20:45:53;;;;;;;7.15;2.20;;;;;;;24.68;32.07;100018.38;10339699;28;20494;-61
2022/08/24 20:50:55;;;;;;;5.50;2.40;;;;;;;24.48;32.26;100026.06;10342872;28;20120;-60
2022/08/24 20:56:04;;;;;;;7.30;2.45;;;;;;;24.42;32.43;100025.94;10341983;28;20064;-61
2022/08/24 21:01:07;;;;;;;6.07;2.37;;;;;;;24.11;32.94;100029.47;10342911;28;20603;-60
2022/08/24 21:06:13;;;;;;;5.20;2.10;;;;;;;24.12;33.03;100024.97;10348707;28;20535;-60
2022/08/24 21:11:15;;;;;;;7.03;2.20;;;;;;;24.09;33.21;100036.81;10351793;28;20342;-60
2022/08/24 21:16:17;;;;;;;6.70;2.40;;;;;;;24.08;33.50;100037.81;10351086;28;20080;-60
2022/08/24 21:21:19;;;;;;;7.93;2.40;;;;;;;23.89;33.96;100045.41;10350200;28;20053;-60
2022/08/24 21:26:25;;;;;;;6.53;2.40;;;;;;;23.26;34.82;100050.75;10348391;28;20054;-60
2022/08/24 21:31:27;;;;;;;12.10;2.83;;;;;;;23.31;34.95;100045.72;10345422;28;20060;-60
2022/08/24 21:36:30;;;;;;;9.55;2.40;;;;;;;23.36;34.83;100049.56;10349229;28;20050;-60
2022/08/24 21:41:32;;;;;;;7.82;2.50;;;;;;;23.35;35.38;100045.22;10341156;28;20510;-60
2022/08/24 21:46:37;;;;;;;7.30;2.53;;;;;;;23.40;35.34;100048.25;10340797;28;20049;-60
2022/08/24 21:51:39;;;;;;;9.73;2.45;;;;;;;23.20;35.49;100043.44;10347265;28;20042;-60
2022/08/24 21:56:41;;;;;;;7.85;2.20;;;;;;;23.04;35.61;100048.81;10348307;28;20313;-60
2022/08/24 22:01:43;;;;;;;6.40;2.28;;;;;;;23.09;35.87;100046.44;10346204;28;20274;-60
2022/08/24 22:06:45;;;;;;;5.68;2.20;;;;;;;22.72;36.53;100046.94;10346981;28;20508;-60
2022/08/24 22:11:47;;;;;;;5.53;2.35;;;;;;;22.48;36.73;100055.75;10348040;28;20053;-60
2022/08/24 22:16:49;;;;;;;7.15;2.47;;;;;;;22.48;36.79;100058.41;10345450;28;20049;-60
2022/08/24 22:21:50;;;;;;;4.90;2.40;;;;;;;22.19;37.15;100058.00;10345465;28;20076;-60
2022/08/24 22:26:52;;;;;;;5.90;2.40;;;;;;;21.95;37.58;100049.94;10346617;28;20041;-60
2022/08/24 22:31:54;;;;;;;5.63;2.40;;;;;;;22.06;37.78;100046.16;10345516;28;20490;-60
2022/08/24 22:37:00;;;;;;;6.75;2.47;;;;;;;22.10;37.83;100045.69;10344908;28;20072;-60
2022/08/24 22:42:03;;;;;;;6.95;2.20;;;;;;;21.90;38.03;100041.59;10345339;28;20498;-60
2022/08/24 22:47:06;;;;;;;11.90;2.47;;;;;;;21.40;38.90;100046.00;10343523;28;20048;-60
2022/08/24 22:52:15;;;;;;;8.50;2.30;;;;;;;21.53;38.92;100041.09;10344527;28;20046;-61
2022/08/24 22:57:17;;;;;;;6.57;2.58;;;;;;;21.73;38.42;100038.03;10343206;28;20057;-60
2022/08/24 23:02:21;;;;;;;7.90;2.20;;;;;;;21.62;39.00;100037.50;10345131;28;20298;-60
2022/08/24 23:07:23;;;;;;;7.05;2.20;;;;;;;21.67;38.81;100040.50;10344125;28;20060;-60
2022/08/24 23:12:25;;;;;;;6.15;2.45;;;;;;;21.73;38.95;100043.38;10345152;28;20052;-60
2022/08/24 23:17:26;;;;;;;6.75;2.22;;;;;;;21.75;38.89;100035.22;10343154;28;20145;-60
2022/08/24 23:22:31;;;;;;;10.38;2.40;;;;;;;21.71;39.09;100034.69;10338904;28;20316;-60
2022/08/24 23:27:33;;;;;;;7.05;2.40;;;;;;;21.60;39.22;100040.28;10330155;28;20050;-60
2022/08/24 23:32:39;;;;;;;8.32;2.58;;;;;;;21.58;38.86;100036.13;10336107;28;20046;-60
2022/08/24 23:37:41;;;;;;;5.50;2.47;;;;;;;21.42;39.08;100039.53;10340274;28;20058;-60
2022/08/24 23:42:43;;;;;;;7.22;2.33;;;;;;;21.21;39.89;100032.91;10336954;28;20132;-60
2022/08/24 23:47:44;;;;;;;9.32;2.40;;;;;;;21.01;40.23;100033.09;10341541;28;20038;-60
2022/08/24 23:52:46;;;;;;;6.28;2.50;;;;;;;20.79;40.39;100030.94;10342220;28;20046;-60
2022/08/24 23:57:48;;;;;;;4.70;2.33;;;;;;;20.74;40.91;100024.44;10340903;28;20062;-60
